createdAt,value
2022-12-17T00:02:15.545Z,4.13
2022-12-17T00:05:02.834Z,3.90
2022-12-17T00:07:48.985Z,3.43
2022-12-17T00:10:35.162Z,7.00
2022-12-17T00:13:21.368Z,4.20
2022-12-17T00:16:10.081Z,4.63
2022-12-17T00:18:56.374Z,4.47
2022-12-17T00:21:43.996Z,10.20
2022-12-17T00:24:30.326Z,4.43
2022-12-17T00:27:16.398Z,3.43
2022-12-17T00:30:02.421Z,4.40
2022-12-17T00:32:48.507Z,5.73
2022-12-17T00:35:34.752Z,6.80
2022-12-17T00:38:22.116Z,5.20
2022-12-17T00:41:10.574Z,3.67
2022-12-17T00:43:56.745Z,4.53
2022-12-17T00:46:43.315Z,5.97
2022-12-17T00:49:29.378Z,3.90
2022-12-17T00:52:15.301Z,3.77
2022-12-17T00:55:02.652Z,4.50
2022-12-17T00:57:48.689Z,3.90
2022-12-17T01:00:34.798Z,6.53
2022-12-17T01:03:24.808Z,7.83
2022-12-17T01:06:11.008Z,7.17
2022-12-17T01:08:56.778Z,3.03
2022-12-17T01:11:44.215Z,7.13
2022-12-17T01:14:30.676Z,6.50
2022-12-17T01:17:16.720Z,6.57
2022-12-17T01:20:02.837Z,4.93
2022-12-17T01:22:49.061Z,6.93
2022-12-17T01:25:35.282Z,7.13
2022-12-17T01:28:23.040Z,5.50
2022-12-17T01:31:09.263Z,4.43
2022-12-17T01:33:55.218Z,5.07
2022-12-17T01:36:41.315Z,3.57
2022-12-17T01:39:27.125Z,3.07
2022-12-17T01:42:13.292Z,6.50
2022-12-17T01:45:12.830Z,4.60
2022-12-17T01:48:11.943Z,8.33
2022-12-17T01:50:59.085Z,6.00
2022-12-17T01:53:47.004Z,4.67
2022-12-17T01:56:33.117Z,5.37
2022-12-17T01:59:19.373Z,4.43
2022-12-17T02:02:06.787Z,6.67
2022-12-17T02:04:52.911Z,6.40
2022-12-17T02:07:43.986Z,10.47
2022-12-17T02:10:35.924Z,7.87
2022-12-17T02:13:26.152Z,8.37
2022-12-17T02:16:14.868Z,8.70
2022-12-17T02:19:04.581Z,6.43
2022-12-17T02:21:48.207Z,8.23
2022-12-17T02:24:40.390Z,8.77
2022-12-17T02:27:29.809Z,6.70
2022-12-17T02:30:17.217Z,9.30
2022-12-17T02:33:05.288Z,4.47
2022-12-17T02:35:52.033Z,6.00
2022-12-17T02:38:39.297Z,5.43
2022-12-17T02:41:25.452Z,4.20
2022-12-17T02:44:14.043Z,4.93
2022-12-17T02:47:01.507Z,6.43
2022-12-17T02:49:47.643Z,5.70
2022-12-17T02:52:35.337Z,4.37
2022-12-17T02:55:21.710Z,6.67
2022-12-17T02:58:07.876Z,4.37
2022-12-17T03:00:56.850Z,4.57
2022-12-17T03:03:47.371Z,2.70
2022-12-17T03:06:36.498Z,2.60
2022-12-17T03:09:22.604Z,5.13
2022-12-17T03:12:17.371Z,4.83
2022-12-17T03:15:03.287Z,4.10
2022-12-17T03:17:50.843Z,4.03
2022-12-17T03:20:37.062Z,5.23
2022-12-17T03:23:29.113Z,2.50
2022-12-17T03:26:16.984Z,7.47
2022-12-17T03:29:03.243Z,3.57
2022-12-17T03:31:49.204Z,3.23
2022-12-17T03:34:37.030Z,4.50
2022-12-17T03:37:23.096Z,6.87
2022-12-17T03:40:09.532Z,5.70
2022-12-17T03:42:55.635Z,3.27
2022-12-17T03:45:41.610Z,2.07
2022-12-17T03:48:28.520Z,4.13
2022-12-17T03:51:16.394Z,6.63
2022-12-17T03:54:02.579Z,5.20
2022-12-17T03:56:49.594Z,6.27
2022-12-17T03:59:35.799Z,3.10
2022-12-17T04:02:22.153Z,7.13
2022-12-17T04:05:08.189Z,6.90
2022-12-17T04:07:56.097Z,7.40
2022-12-17T04:10:42.168Z,3.63
2022-12-17T04:13:28.477Z,9.23
2022-12-17T04:16:14.610Z,4.53
2022-12-17T04:19:00.867Z,4.37
2022-12-17T04:21:46.997Z,4.20
2022-12-17T04:24:34.712Z,3.33
2022-12-17T04:27:20.889Z,3.53
2022-12-17T04:30:03.394Z,6.70
2022-12-17T04:32:49.164Z,3.43
2022-12-17T04:35:35.769Z,8.53
2022-12-17T04:38:21.915Z,4.63
2022-12-17T04:41:09.456Z,3.87
2022-12-17T04:43:59.660Z,5.27
2022-12-17T04:46:49.142Z,5.70
2022-12-17T04:49:35.439Z,4.53
2022-12-17T04:52:21.596Z,3.67
2022-12-17T04:55:19.329Z,4.50
2022-12-17T04:58:06.449Z,5.20
2022-12-17T05:00:52.541Z,3.80
2022-12-17T05:03:39.264Z,4.33
2022-12-17T05:06:26.220Z,4.87
2022-12-17T05:09:12.464Z,5.80
2022-12-17T05:11:58.608Z,7.80
2022-12-17T05:14:45.875Z,4.40
2022-12-17T05:17:32.074Z,5.27
2022-12-17T05:20:18.256Z,4.20
2022-12-17T05:23:04.369Z,4.93
2022-12-17T05:25:50.535Z,5.77
2022-12-17T05:28:36.700Z,7.17
2022-12-17T05:31:24.079Z,5.37
2022-12-17T05:34:10.685Z,4.47
2022-12-17T05:36:56.770Z,6.07
2022-12-17T05:39:42.815Z,4.77
2022-12-17T05:42:29.122Z,6.00
2022-12-17T05:45:15.256Z,6.87
2022-12-17T05:48:02.351Z,5.87
2022-12-17T05:50:48.789Z,5.83
2022-12-17T05:53:35.120Z,6.20
2022-12-17T05:56:21.708Z,5.40
2022-12-17T05:59:07.959Z,5.03
2022-12-17T06:01:53.855Z,6.87
2022-12-17T06:04:41.368Z,3.37
2022-12-17T06:07:27.469Z,3.47
2022-12-17T06:10:13.601Z,3.67
2022-12-17T06:12:59.581Z,5.07
2022-12-17T06:15:45.634Z,3.17
2022-12-17T06:18:31.904Z,2.57
2022-12-17T06:21:19.032Z,3.63
2022-12-17T06:24:05.139Z,7.23
2022-12-17T06:26:51.148Z,5.60
2022-12-17T06:29:37.191Z,5.03
2022-12-17T06:32:23.276Z,4.77
2022-12-17T06:35:09.608Z,3.87
2022-12-17T06:37:56.861Z,4.67
2022-12-17T06:40:43.110Z,4.63
2022-12-17T06:43:29.235Z,6.07
2022-12-17T06:46:15.571Z,2.70
2022-12-17T06:49:01.394Z,4.93
2022-12-17T06:51:47.763Z,3.23
2022-12-17T06:54:35.321Z,2.73
2022-12-17T06:57:21.454Z,4.17
2022-12-17T07:00:07.647Z,2.47
2022-12-17T07:02:53.847Z,2.33
2022-12-17T07:05:39.957Z,3.73
2022-12-17T07:08:26.085Z,5.33
2022-12-17T07:11:13.341Z,3.47
2022-12-17T07:13:59.600Z,3.20
2022-12-17T07:16:45.776Z,3.73
2022-12-17T07:19:32.177Z,2.20
2022-12-17T07:22:18.326Z,3.10
2022-12-17T07:25:06.656Z,2.63
2022-12-17T07:27:50.325Z,1.73
2022-12-17T07:30:36.423Z,4.17
2022-12-17T07:33:23.587Z,3.40
2022-12-17T07:36:11.624Z,2.47
2022-12-17T07:38:57.740Z,3.30
2022-12-17T07:41:43.765Z,2.57
2022-12-17T07:44:31.328Z,1.80
2022-12-17T07:47:17.460Z,2.57
2022-12-17T07:50:03.573Z,3.23
2022-12-17T07:52:49.463Z,2.97
2022-12-17T07:55:35.733Z,2.47
2022-12-17T07:58:22.992Z,5.83
2022-12-17T08:01:10.566Z,2.33
2022-12-17T08:03:56.940Z,2.77
2022-12-17T08:06:43.273Z,2.57
2022-12-17T08:09:29.148Z,6.23
2022-12-17T08:12:15.348Z,5.83
2022-12-17T08:15:01.461Z,4.30
2022-12-17T08:17:48.651Z,3.20
2022-12-17T08:20:35.086Z,2.50
2022-12-17T08:23:21.961Z,2.67
2022-12-17T08:26:08.022Z,3.30
2022-12-17T08:28:55.358Z,2.50
2022-12-17T08:31:43.147Z,1.60
2022-12-17T08:34:30.433Z,2.83
2022-12-17T08:37:16.637Z,2.57
2022-12-17T08:40:02.761Z,3.50
2022-12-17T08:42:48.794Z,6.75
2022-12-17T08:45:35.037Z,4.50
2022-12-17T08:48:21.563Z,4.10
2022-12-17T08:51:09.215Z,5.33
2022-12-17T08:53:55.356Z,5.90
2022-12-17T08:56:43.848Z,4.80
2022-12-17T08:59:29.540Z,7.60
2022-12-17T09:02:15.808Z,6.57
2022-12-17T09:05:02.011Z,7.13
2022-12-17T09:07:49.227Z,7.40
2022-12-17T09:10:35.551Z,12.77
2022-12-17T09:13:21.779Z,12.03
2022-12-17T09:16:10.933Z,11.83
2022-12-17T09:18:56.887Z,13.27
2022-12-17T09:21:43.476Z,17.93
2022-12-17T09:24:30.648Z,11.10
2022-12-17T09:27:21.957Z,15.07
2022-12-17T09:30:07.925Z,15.07
2022-12-17T09:32:54.715Z,14.93
2022-12-17T09:35:40.853Z,16.33
2022-12-17T09:38:26.879Z,19.63
2022-12-17T09:41:14.188Z,13.23
2022-12-17T09:44:04.838Z,85.33
2022-12-17T09:46:53.469Z,21.83
2022-12-17T09:49:40.525Z,33.57
2022-12-17T09:52:34.376Z,12.13
2022-12-17T09:55:22.634Z,11.00
2022-12-17T09:58:10.204Z,17.30
2022-12-17T10:01:00.874Z,16.90
2022-12-17T10:03:49.255Z,18.17
2022-12-17T10:06:37.064Z,12.53
2022-12-17T10:09:29.419Z,17.40
2022-12-17T10:12:15.882Z,24.60
2022-12-17T10:15:03.321Z,17.70
2022-12-17T10:17:49.639Z,16.67
2022-12-17T10:20:38.220Z,17.50
2022-12-17T10:23:39.117Z,13.57
2022-12-17T10:26:25.552Z,15.93
2022-12-17T10:29:19.612Z,14.47
2022-12-17T10:32:07.284Z,19.80
2022-12-17T10:34:59.292Z,23.73
2022-12-17T10:37:50.761Z,28.53
2022-12-17T10:40:40.005Z,22.13
2022-12-17T10:43:40.787Z,30.17
2022-12-17T10:46:26.986Z,31.20
2022-12-17T10:49:23.852Z,34.17
2022-12-17T10:52:09.874Z,34.43
2022-12-17T10:54:56.101Z,31.70
2022-12-17T10:57:44.038Z,32.10
2022-12-17T11:00:51.670Z,38.37
2022-12-17T11:03:52.116Z,34.17
2022-12-17T11:06:45.744Z,30.73
2022-12-17T11:09:36.216Z,32.87
2022-12-17T11:12:25.820Z,42.80
2022-12-17T11:15:19.117Z,28.50
2022-12-17T11:18:11.069Z,25.07
2022-12-17T11:21:01.748Z,20.83
2022-12-17T11:23:49.209Z,31.00
2022-12-17T11:26:38.031Z,20.63
2022-12-17T11:29:24.081Z,18.67
2022-12-17T11:32:15.365Z,23.27
2022-12-17T11:35:13.561Z,18.40
2022-12-17T11:38:03.414Z,21.90
2022-12-17T11:40:56.096Z,25.03
2022-12-17T11:43:46.688Z,17.43
2022-12-17T11:46:38.850Z,18.90
2022-12-17T11:49:30.617Z,23.63
2022-12-17T11:52:21.156Z,21.00
2022-12-17T11:55:11.367Z,21.90
2022-12-17T11:58:03.760Z,23.07
2022-12-17T12:00:52.820Z,17.13
2022-12-17T12:03:45.489Z,17.93
2022-12-17T12:06:34.463Z,15.57
2022-12-17T12:09:24.818Z,24.63
2022-12-17T12:12:15.864Z,16.63
2022-12-17T12:15:05.762Z,20.97
2022-12-17T12:18:00.453Z,23.90
2022-12-17T12:20:51.667Z,25.87
2022-12-17T12:23:40.971Z,23.17
2022-12-17T12:26:32.549Z,15.97
2022-12-17T12:29:22.895Z,25.93
2022-12-17T12:32:13.557Z,14.87
2022-12-17T12:34:59.625Z,14.83
2022-12-17T12:37:45.634Z,19.90
2022-12-17T12:40:34.638Z,20.10
2022-12-17T12:43:22.399Z,20.97
2022-12-17T12:46:08.292Z,22.03
2022-12-17T12:49:02.656Z,21.07
2022-12-17T12:51:50.393Z,26.63
2022-12-17T12:54:47.592Z,24.80
2022-12-17T12:57:46.745Z,23.27
2022-12-17T13:00:43.330Z,30.30
2022-12-17T13:03:39.599Z,21.67
2022-12-17T13:06:10.130Z,18.07
2022-12-17T13:08:39.270Z,15.80
2022-12-17T13:11:13.078Z,16.47
2022-12-17T13:13:56.244Z,18.50
2022-12-17T13:16:33.763Z,19.47
2022-12-17T13:19:06.799Z,19.73
2022-12-17T13:21:36.725Z,14.77
2022-12-17T13:24:12.156Z,23.27
2022-12-17T13:26:47.334Z,17.40
2022-12-17T13:29:23.159Z,14.53
2022-12-17T13:32:02.909Z,17.70
2022-12-17T13:34:37.768Z,15.57
2022-12-17T13:37:10.172Z,14.60
2022-12-17T13:39:43.164Z,15.87
2022-12-17T13:42:19.145Z,14.83
2022-12-17T13:44:48.890Z,14.53
2022-12-17T13:47:22.198Z,15.97
2022-12-17T13:50:31.827Z,11.80
2022-12-17T13:52:45.428Z,14.73
2022-12-17T13:55:19.695Z,15.90
2022-12-17T13:57:48.677Z,11.57
2022-12-17T14:00:21.777Z,14.40
2022-12-17T14:02:50.550Z,20.47
2022-12-17T14:05:24.701Z,11.50
2022-12-17T14:07:54.944Z,9.57
2022-12-17T14:10:23.517Z,16.37
2022-12-17T14:12:51.792Z,18.80
2022-12-17T14:15:24.366Z,13.87
2022-12-17T14:17:53.582Z,11.53
2022-12-17T14:20:24.097Z,21.00
2022-12-17T14:22:55.256Z,14.23
2022-12-17T14:25:24.929Z,18.97
2022-12-17T14:27:57.548Z,19.93
2022-12-17T14:30:27.494Z,18.37
2022-12-17T14:32:56.140Z,18.40
2022-12-17T14:35:25.660Z,13.67
2022-12-17T14:37:55.524Z,14.13
2022-12-17T14:40:27.139Z,13.77
2022-12-17T14:42:59.480Z,19.63
2022-12-17T14:45:29.188Z,23.20
2022-12-17T14:47:59.288Z,18.20
2022-12-17T14:50:33.402Z,13.40
2022-12-17T14:53:04.419Z,14.33
2022-12-17T14:55:34.630Z,15.57
2022-12-17T14:58:10.473Z,14.73
2022-12-17T15:00:40.008Z,14.33
2022-12-17T15:03:11.500Z,21.87
2022-12-17T15:05:40.664Z,22.53
2022-12-17T15:08:12.229Z,29.27
2022-12-17T15:10:40.840Z,22.60
2022-12-17T15:13:09.813Z,22.10
2022-12-17T15:15:38.255Z,19.43
2022-12-17T15:18:06.880Z,17.23
2022-12-17T15:20:35.552Z,13.67
2022-12-17T15:23:04.011Z,16.07
2022-12-17T15:25:37.637Z,19.30
2022-12-17T15:28:10.465Z,18.50
2022-12-17T15:30:40.175Z,21.00
2022-12-17T15:33:08.825Z,19.63
2022-12-17T15:35:38.163Z,15.63
2022-12-17T15:38:07.404Z,20.50
2022-12-17T15:40:38.174Z,13.40
2022-12-17T15:43:11.651Z,22.00
2022-12-17T15:45:40.333Z,16.80
2022-12-17T15:48:08.796Z,18.93
2022-12-17T15:50:37.383Z,18.80
2022-12-17T15:53:06.279Z,18.47
2022-12-17T15:55:34.768Z,18.93
2022-12-17T15:58:04.757Z,19.47
2022-12-17T16:00:33.431Z,18.07
2022-12-17T16:03:02.021Z,19.40
2022-12-17T16:05:30.849Z,17.50
2022-12-17T16:08:02.393Z,22.30
2022-12-17T16:10:31.546Z,24.80
2022-12-17T16:13:00.002Z,24.40
2022-12-17T16:15:30.358Z,20.33
2022-12-17T16:17:58.973Z,24.23
2022-12-17T16:20:27.441Z,20.97
2022-12-17T16:22:56.000Z,21.47
2022-12-17T16:25:24.665Z,20.73
2022-12-17T16:27:53.136Z,17.20
2022-12-17T16:30:21.596Z,20.77
2022-12-17T16:32:51.601Z,19.87
2022-12-17T16:35:20.080Z,24.00
2022-12-17T16:37:48.743Z,26.30
2022-12-17T16:40:17.445Z,20.00
2022-12-17T16:42:46.008Z,23.57
2022-12-17T16:45:14.484Z,20.87
2022-12-17T16:47:43.057Z,18.27
2022-12-17T16:50:13.080Z,30.47
2022-12-17T16:52:41.556Z,22.07
2022-12-17T16:55:10.435Z,25.90
2022-12-17T16:57:39.052Z,21.50
2022-12-17T17:00:08.095Z,26.87
2022-12-17T17:02:36.890Z,21.23
2022-12-17T17:05:05.628Z,16.93
2022-12-17T17:07:35.594Z,27.17
2022-12-17T17:10:04.120Z,26.57
2022-12-17T17:12:32.552Z,28.13
2022-12-17T17:15:01.190Z,21.83
2022-12-17T17:17:55.779Z,18.57
2022-12-17T17:20:18.584Z,19.50
2022-12-17T17:22:48.487Z,22.67
2022-12-17T17:25:17.020Z,14.97
2022-12-17T17:27:45.605Z,21.07
2022-12-17T17:30:14.679Z,21.37
2022-12-17T17:32:43.273Z,25.97
2022-12-17T17:35:11.905Z,21.40
2022-12-17T17:37:40.449Z,20.93
2022-12-17T17:40:11.441Z,20.37
2022-12-17T17:42:39.887Z,20.23
2022-12-17T17:45:09.141Z,20.03
2022-12-17T17:47:37.689Z,21.80
2022-12-17T17:50:06.832Z,26.30
2022-12-17T17:52:35.397Z,25.57
2022-12-17T17:55:03.971Z,28.93
2022-12-17T17:57:33.818Z,23.97
2022-12-17T18:00:02.905Z,16.97
2022-12-17T18:02:31.600Z,17.00
2022-12-17T18:05:00.185Z,25.37
2022-12-17T18:07:28.792Z,15.97
2022-12-17T18:09:59.685Z,18.70
2022-12-17T18:12:45.668Z,23.97
2022-12-17T18:15:17.446Z,19.17
2022-12-17T18:17:46.989Z,20.47
2022-12-17T18:20:15.728Z,18.70
2022-12-17T18:22:46.085Z,16.87
2022-12-17T18:25:15.199Z,22.53
2022-12-17T18:27:43.813Z,16.53
2022-12-17T18:30:12.754Z,13.33
2022-12-17T18:32:43.743Z,17.40
2022-12-17T18:35:12.305Z,15.93
2022-12-17T18:37:40.948Z,23.37
2022-12-17T18:40:10.010Z,18.80
2022-12-17T18:42:56.229Z,19.50
2022-12-17T18:45:24.986Z,15.50
2022-12-17T18:47:54.890Z,13.43
2022-12-17T18:50:23.337Z,9.43
2022-12-17T18:52:51.904Z,17.33
2022-12-17T18:55:20.511Z,16.30
2022-12-17T18:57:48.991Z,17.43
2022-12-17T19:00:17.616Z,12.90
2022-12-17T19:02:46.321Z,14.57
2022-12-17T19:05:16.667Z,12.10
2022-12-17T19:07:45.227Z,19.00
2022-12-17T19:10:13.769Z,16.73
2022-12-17T19:12:42.212Z,15.30
2022-12-17T19:15:11.176Z,21.70
2022-12-17T19:17:39.773Z,28.47
2022-12-17T19:20:08.750Z,18.70
2022-12-17T19:22:38.712Z,28.23
2022-12-17T19:25:07.520Z,35.83
2022-12-17T19:27:35.976Z,24.97
2022-12-17T19:30:04.517Z,21.50
2022-12-17T19:32:33.124Z,29.57
2022-12-17T19:35:01.690Z,25.03
2022-12-17T19:37:30.325Z,22.67
2022-12-17T19:40:00.224Z,18.67
2022-12-17T19:42:36.757Z,19.80
2022-12-17T19:45:06.450Z,18.13
2022-12-17T19:47:35.074Z,19.23
2022-12-17T19:50:03.524Z,10.90
2022-12-17T19:52:32.176Z,12.17
2022-12-17T19:55:02.039Z,13.43
2022-12-17T19:57:30.500Z,17.00
2022-12-17T19:59:59.219Z,6.20
2022-12-17T20:02:32.561Z,9.43
2022-12-17T20:05:02.018Z,8.60
2022-12-17T20:07:30.464Z,9.03
2022-12-17T20:09:58.909Z,11.80
2022-12-17T20:12:28.983Z,9.73
2022-12-17T20:14:57.436Z,3.00
2022-12-17T20:17:26.407Z,3.40
2022-12-17T20:19:57.867Z,6.60
2022-12-17T20:22:26.498Z,4.97
2022-12-17T20:24:54.936Z,3.90
2022-12-17T20:27:23.574Z,3.20
2022-12-17T20:29:55.720Z,2.77
2022-12-17T20:32:24.232Z,8.17
2022-12-17T20:34:53.090Z,4.10
2022-12-17T20:37:22.066Z,3.30
2022-12-17T20:39:50.501Z,2.20
2022-12-17T20:42:19.164Z,7.03
2022-12-17T20:44:53.220Z,1.50
2022-12-17T20:47:23.755Z,7.13
2022-12-17T20:49:52.325Z,4.17
2022-12-17T20:52:20.838Z,1.60
2022-12-17T20:54:49.631Z,2.20
2022-12-17T20:57:18.108Z,2.33
2022-12-17T20:59:46.821Z,3.43
2022-12-17T21:02:15.847Z,1.40
2022-12-17T21:04:46.022Z,1.63
2022-12-17T21:07:14.529Z,1.87
2022-12-17T21:09:43.122Z,1.00
2022-12-17T21:12:13.496Z,1.50
2022-12-17T21:14:42.125Z,1.20
2022-12-17T21:17:10.772Z,1.63
2022-12-17T21:19:39.388Z,3.17
2022-12-17T21:22:10.973Z,1.00
2022-12-17T21:24:40.021Z,0.60
2022-12-17T21:27:14.501Z,0.80
2022-12-17T21:29:43.372Z,1.13
2022-12-17T21:32:12.034Z,0.83
2022-12-17T21:34:40.673Z,1.10
2022-12-17T21:37:11.449Z,0.70
2022-12-17T21:39:40.060Z,0.60
2022-12-17T21:42:25.331Z,2.00
2022-12-17T21:44:53.858Z,1.60
2022-12-17T21:47:22.494Z,1.23
2022-12-17T21:49:51.175Z,0.60
2022-12-17T21:52:21.380Z,1.13
2022-12-17T21:54:49.825Z,0.63
2022-12-17T21:57:18.419Z,0.80
2022-12-17T21:59:46.980Z,0.90
2022-12-17T22:02:16.411Z,2.63
2022-12-17T22:04:45.199Z,0.80
2022-12-17T22:07:23.350Z,0.90
2022-12-17T22:10:15.297Z,1.20
2022-12-17T22:13:10.861Z,1.03
2022-12-17T22:15:43.031Z,1.07
2022-12-17T22:18:16.813Z,1.10
2022-12-17T22:20:45.382Z,0.83
2022-12-17T22:23:13.858Z,0.77
2022-12-17T22:25:44.003Z,1.10
2022-12-17T22:28:12.695Z,1.00
2022-12-17T22:31:01.000Z,1.07
2022-12-17T22:34:07.985Z,1.10
2022-12-17T22:38:45.909Z,1.30
2022-12-17T22:44:31.971Z,1.23
2022-12-17T22:44:42.203Z,1.40
2022-12-17T22:45:09.925Z,1.50
2022-12-17T22:47:39.309Z,3.27
2022-12-17T22:50:08.260Z,2.00
2022-12-17T22:52:37.411Z,2.00
2022-12-17T22:55:06.718Z,3.03
2022-12-17T22:57:38.469Z,2.97
2022-12-17T23:00:14.656Z,2.80
2022-12-17T23:02:43.324Z,4.37
2022-12-17T23:05:11.822Z,2.50
2022-12-17T23:07:40.274Z,4.30
2022-12-17T23:10:09.352Z,4.17
2022-12-17T23:12:55.440Z,4.97
2022-12-17T23:15:26.619Z,5.53
2022-12-17T23:17:56.128Z,4.67
2022-12-17T23:20:24.718Z,4.80
2022-12-17T23:22:53.283Z,7.97
2022-12-17T23:25:21.881Z,5.37
2022-12-17T23:27:51.944Z,5.10
2022-12-17T23:30:20.661Z,6.97
2022-12-17T23:32:49.112Z,5.77
2022-12-17T23:35:17.656Z,8.07
2022-12-17T23:37:46.208Z,9.30
2022-12-17T23:40:15.079Z,7.47
2022-12-17T23:42:43.657Z,11.17
2022-12-17T23:45:13.796Z,11.70
2022-12-17T23:47:42.700Z,8.47
2022-12-17T23:50:12.310Z,9.27
2022-12-17T23:52:41.005Z,9.47
2022-12-17T23:55:11.580Z,10.73
2022-12-17T23:57:40.200Z,6.73
